Time;durP1;ratioP1;P1;durP2;ratioP2;P2;SDS_P1;SDS_P2;PMS_P1;PMS_P2;Temp;Humidity;BMP_temperature;BMP_pressure;BME280_temperature;BME280_humidity;BME280_pressure;Samples;Min_cycle;Max_cycle;Signal;HPM_P1;HPM_P2
2022/04/12 00:00:55;;;;;;;10.98;5.80;;;;;;;;;;5008706;28;20033;-79
2022/04/12 00:03:21;;;;;;;11.23;5.38;;;;;;;;;;5009694;28;20037;-80
2022/04/12 00:05:47;;;;;;;8.77;5.53;;;;;;;;;;5006701;28;20041;-79
2022/04/12 00:08:13;;;;;;;10.07;5.53;;;;;;;;;;5004960;28;20061;-79
2022/04/12 00:10:40;;;;;;;10.32;5.13;;;;;;;;;;5007192;28;20029;-78
2022/04/12 00:13:06;;;;;;;14.02;5.13;;;;;;;;;;5002056;28;20045;-79
2022/04/12 00:15:32;;;;;;;11.57;4.88;;;;;;;;;;5011579;28;20022;-79
2022/04/12 00:20:43;;;;;;;9.10;5.03;;;;;;;;;;5006627;28;20519;-79
2022/04/12 00:23:11;;;;;;;8.40;5.00;;;;;;;;;;5002190;28;20439;-79
2022/04/12 00:25:37;;;;;;;8.93;4.88;;;;;;;;;;5006834;28;20072;-79
2022/04/12 00:28:02;;;;;;;7.28;4.30;;;;;;;;;;5008532;28;20511;-79
2022/04/12 00:30:29;;;;;;;7.57;4.32;;;;;;;;;;5002954;28;20030;-79
2022/04/12 00:32:55;;;;;;;9.02;4.63;;;;;;;;;;5003896;28;20392;-79
2022/04/12 00:35:21;;;;;;;7.60;4.35;;;;;;;;;;5003896;28;20125;-79
2022/04/12 00:37:48;;;;;;;10.10;4.45;;;;;;;;;;5001028;28;20597;-79
2022/04/12 00:40:17;;;;;;;9.90;4.40;;;;;;;;;;5002901;28;20038;-79
2022/04/12 00:42:43;;;;;;;8.63;4.53;;;;;;;;;;4998002;28;20137;-79
2022/04/12 00:45:10;;;;;;;10.60;4.53;;;;;;;;;;5003428;28;20516;-79
2022/04/12 00:47:36;;;;;;;14.10;4.82;;;;;;;;;;4998375;28;20050;-79
2022/04/12 00:50:03;;;;;;;9.55;4.88;;;;;;;;;;5006850;28;20053;-79
2022/04/12 00:52:29;;;;;;;6.57;4.60;;;;;;;;;;5034092;28;20536;-79
2022/04/12 00:54:55;;;;;;;9.60;4.25;;;;;;;;;;5000769;28;20033;-79
2022/04/12 00:57:21;;;;;;;5.95;4.00;;;;;;;;;;5003020;28;20022;-79
2022/04/12 00:59:47;;;;;;;9.70;4.70;;;;;;;;;;5008512;28;20113;-79
2022/04/12 01:02:13;;;;;;;9.27;4.03;;;;;;;;;;5007296;28;20636;-79
2022/04/12 01:04:39;;;;;;;8.90;4.55;;;;;;;;;;5000794;28;20097;-79
2022/04/12 01:07:06;;;;;;;13.60;5.32;;;;;;;;;;5006156;28;20093;-79
2022/04/12 01:09:31;;;;;;;12.65;4.70;;;;;;;;;;5007262;28;20054;-79
2022/04/12 01:11:58;;;;;;;8.98;4.60;;;;;;;;;;5004350;28;20075;-79
2022/04/12 01:14:25;;;;;;;8.07;4.82;;;;;;;;;;5004542;28;20054;-79
2022/04/12 01:16:51;;;;;;;6.45;4.68;;;;;;;;;;5005993;28;20059;-79
2022/04/12 01:19:17;;;;;;;7.95;4.35;;;;;;;;;;5003784;28;20031;-79
2022/04/12 01:22:00;;;;;;;8.55;4.53;;;;;;;;;;5008444;28;20037;-79
2022/04/12 01:24:27;;;;;;;8.57;4.35;;;;;;;;;;5010581;28;20357;-79
2022/04/12 01:26:52;;;;;;;8.00;4.22;;;;;;;;;;5032244;28;20037;-79
2022/04/12 01:29:18;;;;;;;11.52;4.47;;;;;;;;;;5010548;28;20076;-79
2022/04/12 01:31:44;;;;;;;10.88;4.63;;;;;;;;;;5008058;28;20037;-78
2022/04/12 01:34:10;;;;;;;10.82;4.40;;;;;;;;;;5012416;28;20112;-78
2022/04/12 01:36:36;;;;;;;8.55;4.50;;;;;;;;;;5000945;28;20474;-79
2022/04/12 01:39:02;;;;;;;11.20;4.45;;;;;;;;;;5010325;28;20026;-79
2022/04/12 01:41:29;;;;;;;12.55;4.13;;;;;;;;;;5009746;28;20026;-79
2022/04/12 01:43:55;;;;;;;8.55;4.40;;;;;;;;;;5007677;28;20034;-79
2022/04/12 01:46:20;;;;;;;14.38;4.63;;;;;;;;;;5006379;28;20034;-79
2022/04/12 01:48:48;;;;;;;8.00;4.43;;;;;;;;;;4998719;28;20044;-79
2022/04/12 01:51:14;;;;;;;9.25;4.35;;;;;;;;;;4999833;28;20492;-80
2022/04/12 01:53:40;;;;;;;10.82;4.40;;;;;;;;;;5008954;28;20030;-79
2022/04/12 01:56:06;;;;;;;5.47;4.00;;;;;;;;;;5011198;28;20080;-79
2022/04/12 01:58:33;;;;;;;11.68;4.70;;;;;;;;;;5003147;28;20097;-79
2022/04/12 02:00:59;;;;;;;8.38;4.32;;;;;;;;;;5001836;28;20034;-79
2022/04/12 02:03:25;;;;;;;7.22;4.38;;;;;;;;;;5009283;28;20791;-79
2022/04/12 02:05:51;;;;;;;10.77;4.82;;;;;;;;;;5007259;28;20025;-79
2022/04/12 02:08:18;;;;;;;8.98;4.40;;;;;;;;;;5005740;28;20082;-79
2022/04/12 02:10:44;;;;;;;7.45;4.38;;;;;;;;;;5002929;28;20041;-79
2022/04/12 02:13:10;;;;;;;11.23;4.68;;;;;;;;;;5004436;28;20084;-79
2022/04/12 02:15:35;;;;;;;10.38;4.93;;;;;;;;;;5008012;28;20029;-79
2022/04/12 02:18:01;;;;;;;7.30;4.70;;;;;;;;;;5008304;28;20022;-79
2022/04/12 02:20:27;;;;;;;8.98;4.57;;;;;;;;;;5002731;28;20022;-79
2022/04/12 02:22:53;;;;;;;10.48;4.35;;;;;;;;;;5007291;28;20036;-79
2022/04/12 02:25:19;;;;;;;7.57;4.13;;;;;;;;;;5007349;28;20041;-79
2022/04/12 02:27:45;;;;;;;14.48;4.65;;;;;;;;;;5007603;28;20456;-79
2022/04/12 02:30:12;;;;;;;7.45;4.10;;;;;;;;;;5004824;28;20037;-79
2022/04/12 02:32:39;;;;;;;8.40;4.72;;;;;;;;;;5005402;28;20038;-79
2022/04/12 02:35:05;;;;;;;6.13;4.38;;;;;;;;;;5004123;28;20041;-79
2022/04/12 02:37:31;;;;;;;10.10;4.70;;;;;;;;;;5006904;28;20378;-79
2022/04/12 02:39:57;;;;;;;9.02;4.90;;;;;;;;;;5008515;28;20026;-79
2022/04/12 02:42:22;;;;;;;10.50;4.32;;;;;;;;;;5014741;28;20029;-79
2022/04/12 02:44:48;;;;;;;5.80;3.92;;;;;;;;;;5006181;28;20022;-78
2022/04/12 02:47:14;;;;;;;9.45;4.35;;;;;;;;;;5011900;28;20112;-79
2022/04/12 02:49:40;;;;;;;10.30;4.20;;;;;;;;;;5009027;28;20112;-79
2022/04/12 02:52:08;;;;;;;8.35;4.32;;;;;;;;;;5008919;28;20477;-79
2022/04/12 02:54:34;;;;;;;10.20;4.75;;;;;;;;;;5007648;28;20038;-79
2022/04/12 02:57:00;;;;;;;11.60;4.40;;;;;;;;;;5005029;28;20034;-79
2022/04/12 02:59:26;;;;;;;8.10;4.00;;;;;;;;;;4998807;28;20031;-79
2022/04/12 03:01:52;;;;;;;8.95;4.60;;;;;;;;;;5002557;28;20025;-79
2022/04/12 03:04:18;;;;;;;11.65;4.63;;;;;;;;;;5008097;28;20112;-79
2022/04/12 03:06:43;;;;;;;6.22;4.13;;;;;;;;;;5005441;28;20051;-79
2022/04/12 03:09:10;;;;;;;8.48;4.32;;;;;;;;;;5010256;28;20053;-79
2022/04/12 03:11:36;;;;;;;9.35;4.07;;;;;;;;;;5001662;28;20451;-79
2022/04/12 03:14:02;;;;;;;7.80;4.15;;;;;;;;;;5005172;28;20033;-78
2022/04/12 03:16:29;;;;;;;7.65;4.15;;;;;;;;;;5008988;28;20042;-78
2022/04/12 03:18:55;;;;;;;8.40;5.50;;;;;;;;;;5008563;28;20022;-78
2022/04/12 03:21:21;;;;;;;11.38;4.90;;;;;;;;;;5012723;28;20096;-79
2022/04/12 03:23:47;;;;;;;10.40;5.15;;;;;;;;;;5008433;28;20064;-76
2022/04/12 03:26:13;;;;;;;11.95;4.30;;;;;;;;;;5006508;28;20038;-76
2022/04/12 03:28:39;;;;;;;8.77;4.82;;;;;;;;;;5005966;28;20030;-76
2022/04/12 03:31:05;;;;;;;9.80;4.45;;;;;;;;;;5009963;28;20018;-74
2022/04/12 03:33:30;;;;;;;11.02;4.57;;;;;;;;;;5010375;28;20440;-74
2022/04/12 03:35:56;;;;;;;11.40;5.10;;;;;;;;;;5005709;28;20034;-76
2022/04/12 03:38:22;;;;;;;11.13;5.00;;;;;;;;;;4999647;28;20045;-76
2022/04/12 03:40:48;;;;;;;6.43;4.70;;;;;;;;;;4997769;28;20078;-76
2022/04/12 03:43:14;;;;;;;10.05;4.80;;;;;;;;;;5007199;28;20515;-76
2022/04/12 03:45:40;;;;;;;7.20;4.63;;;;;;;;;;5009102;28;20133;-76
2022/04/12 03:48:06;;;;;;;14.77;5.18;;;;;;;;;;4999855;28;20046;-77
2022/04/12 03:50:34;;;;;;;7.70;4.60;;;;;;;;;;4998534;28;20030;-79
2022/04/12 03:53:00;;;;;;;14.05;5.30;;;;;;;;;;4998444;28;20038;-75
2022/04/12 03:55:34;;;;;;;9.02;5.15;;;;;;;;;;5006236;28;20037;-77
2022/04/12 03:58:01;;;;;;;10.98;4.85;;;;;;;;;;5006718;28;20447;-76
2022/04/12 04:00:27;;;;;;;8.85;5.30;;;;;;;;;;4999959;28;20534;-76
2022/04/12 04:02:54;;;;;;;7.65;4.88;;;;;;;;;;5009562;28;20029;-76
2022/04/12 04:05:20;;;;;;;10.15;5.00;;;;;;;;;;5006843;28;20392;-77
2022/04/12 04:07:46;;;;;;;9.57;4.43;;;;;;;;;;4995414;28;20030;-77
2022/04/12 04:10:12;;;;;;;12.35;5.05;;;;;;;;;;4997928;28;20049;-77
2022/04/12 04:12:38;;;;;;;11.02;5.30;;;;;;;;;;5006212;28;20030;-77
2022/04/12 04:15:05;;;;;;;9.98;4.95;;;;;;;;;;5003666;28;20153;-77
2022/04/12 04:17:31;;;;;;;8.60;5.05;;;;;;;;;;5004498;28;20080;-77
2022/04/12 04:19:58;;;;;;;8.55;4.95;;;;;;;;;;5000440;28;20084;-77
2022/04/12 04:22:23;;;;;;;16.83;5.32;;;;;;;;;;5007474;28;20021;-77
2022/04/12 04:24:49;;;;;;;8.63;5.28;;;;;;;;;;5002807;28;20041;-76
2022/04/12 04:27:16;;;;;;;10.85;5.10;;;;;;;;;;5008125;28;20045;-77
2022/04/12 04:29:42;;;;;;;12.98;5.75;;;;;;;;;;5011985;28;20053;-76
2022/04/12 04:32:08;;;;;;;10.77;5.40;;;;;;;;;;5007951;28;20038;-77
2022/04/12 04:34:34;;;;;;;14.55;5.45;;;;;;;;;;5002489;28;20041;-77
2022/04/12 04:37:00;;;;;;;12.07;5.25;;;;;;;;;;5004547;28;20366;-77
2022/04/12 04:39:26;;;;;;;11.40;5.85;;;;;;;;;;5001286;28;20651;-76
2022/04/12 04:41:52;;;;;;;11.48;5.78;;;;;;;;;;5004884;28;20018;-76
2022/04/12 04:44:18;;;;;;;13.20;5.68;;;;;;;;;;5011904;28;20065;-77
2022/04/12 04:46:44;;;;;;;10.30;5.63;;;;;;;;;;5008339;28;20026;-77
2022/04/12 04:49:10;;;;;;;13.30;5.50;;;;;;;;;;5009626;28;20096;-77
2022/04/12 04:51:40;;;;;;;11.70;5.55;;;;;;;;;;5011273;28;20088;-77
2022/04/12 04:54:05;;;;;;;13.15;5.68;;;;;;;;;;5004977;28;20038;-77
2022/04/12 04:56:31;;;;;;;22.10;5.90;;;;;;;;;;5010323;28;20033;-76
2022/04/12 04:58:58;;;;;;;13.88;6.45;;;;;;;;;;5005309;28;20030;-77
2022/04/12 05:01:24;;;;;;;11.05;5.85;;;;;;;;;;5005062;28;20247;-76
2022/04/12 05:03:50;;;;;;;12.43;5.93;;;;;;;;;;5011933;28;20411;-77
2022/04/12 05:06:16;;;;;;;14.70;5.75;;;;;;;;;;5002538;28;20057;-76
2022/04/12 05:08:42;;;;;;;12.55;5.47;;;;;;;;;;5001513;28;20101;-77
2022/04/12 05:11:08;;;;;;;12.57;6.10;;;;;;;;;;5008193;28;20029;-77
2022/04/12 05:13:33;;;;;;;10.60;5.80;;;;;;;;;;5011442;28;20054;-77
2022/04/12 05:15:59;;;;;;;11.73;5.90;;;;;;;;;;5006215;28;20230;-76
2022/04/12 05:18:25;;;;;;;14.27;6.18;;;;;;;;;;5002338;28;20470;-77
2022/04/12 05:20:52;;;;;;;10.18;6.45;;;;;;;;;;5007177;28;20014;-77
2022/04/12 05:23:18;;;;;;;14.07;6.50;;;;;;;;;;5007351;28;20104;-77
2022/04/12 05:25:44;;;;;;;18.25;6.30;;;;;;;;;;5005937;28;20207;-77
2022/04/12 05:28:10;;;;;;;14.00;6.60;;;;;;;;;;5005914;28;20034;-77
2022/04/12 05:30:36;;;;;;;14.88;6.88;;;;;;;;;;5009875;28;20084;-76
2022/04/12 05:33:02;;;;;;;12.10;6.45;;;;;;;;;;5007291;28;20038;-77
2022/04/12 05:35:27;;;;;;;10.60;6.75;;;;;;;;;;5008549;28;20113;-77
2022/04/12 05:37:54;;;;;;;14.02;6.50;;;;;;;;;;5010433;28;20101;-76
2022/04/12 05:40:20;;;;;;;16.48;7.60;;;;;;;;;;5007764;28;20038;-76
2022/04/12 05:42:47;;;;;;;12.75;6.93;;;;;;;;;;5010977;28;20049;-77
2022/04/12 05:45:13;;;;;;;16.02;8.38;;;;;;;;;;4997610;28;20282;-77
2022/04/12 05:47:40;;;;;;;14.60;7.93;;;;;;;;;;4996278;28;20130;-77
2022/04/12 05:50:06;;;;;;;17.58;7.93;;;;;;;;;;4996852;28;20504;-77
2022/04/12 05:52:32;;;;;;;17.25;8.30;;;;;;;;;;5000699;28;20032;-76
2022/04/12 05:54:58;;;;;;;13.70;7.07;;;;;;;;;;5015537;28;20053;-77
2022/04/12 05:57:24;;;;;;;12.77;7.55;;;;;;;;;;5002106;28;20108;-77
2022/04/12 05:59:50;;;;;;;16.67;7.82;;;;;;;;;;5014679;28;20018;-76
2022/04/12 06:02:16;;;;;;;14.98;7.85;;;;;;;;;;5004748;28;20598;-77
2022/04/12 06:04:42;;;;;;;18.65;7.55;;;;;;;;;;5004698;28;20215;-77
2022/04/12 06:07:08;;;;;;;17.02;8.02;;;;;;;;;;5008956;28;20057;-77
2022/04/12 06:09:34;;;;;;;15.88;7.40;;;;;;;;;;5008631;28;20042;-77
2022/04/12 06:12:00;;;;;;;18.08;7.70;;;;;;;;;;5006486;28;20022;-77
2022/04/12 06:14:26;;;;;;;21.98;7.75;;;;;;;;;;5006987;28;20453;-76
2022/04/12 06:16:55;;;;;;;17.38;8.30;;;;;;;;;;5003152;28;20070;-77
2022/04/12 06:19:21;;;;;;;16.98;7.60;;;;;;;;;;5007970;28;20093;-77
2022/04/12 06:21:46;;;;;;;15.18;7.18;;;;;;;;;;5009483;28;20156;-76
2022/04/12 06:24:13;;;;;;;20.10;7.28;;;;;;;;;;5007172;28;20021;-76
2022/04/12 06:26:39;;;;;;;13.57;7.47;;;;;;;;;;5008556;28;20026;-76
2022/04/12 06:29:05;;;;;;;26.13;7.22;;;;;;;;;;5009789;28;20109;-76
2022/04/12 06:31:31;;;;;;;15.63;7.13;;;;;;;;;;5003394;28;20439;-77
2022/04/12 06:33:57;;;;;;;16.27;6.90;;;;;;;;;;5007026;28;20504;-77
2022/04/12 06:36:23;;;;;;;12.45;7.22;;;;;;;;;;5008218;28;20021;-77
2022/04/12 06:38:50;;;;;;;12.98;7.07;;;;;;;;;;5006416;28;20030;-77
2022/04/12 06:41:16;;;;;;;14.60;6.95;;;;;;;;;;5003084;28;20501;-77
2022/04/12 06:43:42;;;;;;;14.25;6.95;;;;;;;;;;5008186;28;20145;-77
2022/04/12 06:46:08;;;;;;;17.13;6.43;;;;;;;;;;4999123;28;20026;-77
2022/04/12 06:48:34;;;;;;;11.70;6.25;;;;;;;;;;4997840;28;20454;-77
2022/04/12 06:51:00;;;;;;;8.25;4.82;;;;;;;;;;5008775;28;20076;-76
2022/04/12 06:53:26;;;;;;;11.68;5.70;;;;;;;;;;5013583;28;20117;-76
2022/04/12 06:55:52;;;;;;;13.52;5.38;;;;;;;;;;5021352;28;20082;-76
2022/04/12 06:58:18;;;;;;;11.80;5.30;;;;;;;;;;5000978;28;20027;-76
2022/04/12 07:00:44;;;;;;;12.38;5.65;;;;;;;;;;4999082;28;20022;-76
2022/04/12 07:03:10;;;;;;;9.45;5.05;;;;;;;;;;5003927;28;20041;-76
2022/04/12 07:05:36;;;;;;;10.68;5.85;;;;;;;;;;5012065;28;20483;-76
2022/04/12 07:08:02;;;;;;;9.32;5.00;;;;;;;;;;5015513;28;20026;-77
2022/04/12 07:10:31;;;;;;;10.38;4.88;;;;;;;;;;5008909;28;20060;-77
2022/04/12 07:12:57;;;;;;;15.55;5.47;;;;;;;;;;4995423;28;20517;-76
2022/04/12 07:15:23;;;;;;;9.82;5.07;;;;;;;;;;5003605;28;20105;-76
2022/04/12 07:17:49;;;;;;;12.00;4.82;;;;;;;;;;4998015;28;20485;-76
2022/04/12 07:20:15;;;;;;;9.65;5.18;;;;;;;;;;4993779;28;20027;-76
2022/04/12 07:22:41;;;;;;;11.18;5.07;;;;;;;;;;5002490;28;20433;-76
2022/04/12 07:25:08;;;;;;;12.57;5.63;;;;;;;;;;4991602;28;20028;-76
2022/04/12 07:27:36;;;;;;;13.98;5.10;;;;;;;;;;5005421;28;20037;-76
2022/04/12 07:30:03;;;;;;;11.38;4.68;;;;;;;;;;5001150;28;20026;-76
2022/04/12 07:32:29;;;;;;;11.40;5.82;;;;;;;;;;5005093;28;20033;-76
2022/04/12 07:34:54;;;;;;;10.45;5.32;;;;;;;;;;4995940;28;20245;-76
2022/04/12 07:37:20;;;;;;;8.38;4.25;;;;;;;;;;5001645;28;20889;-76
2022/04/12 07:39:46;;;;;;;6.30;4.10;;;;;;;;;;4997627;28;20085;-76
2022/04/12 07:42:13;;;;;;;10.07;4.40;;;;;;;;;;5006968;28;20500;-77
2022/04/12 07:44:39;;;;;;;6.88;3.92;;;;;;;;;;5002229;28;20025;-77
2022/04/12 07:47:05;;;;;;;9.13;4.40;;;;;;;;;;5008299;28;20076;-77
2022/04/12 07:49:31;;;;;;;7.07;3.78;;;;;;;;;;4993722;28;20073;-77
2022/04/12 07:51:57;;;;;;;10.38;4.47;;;;;;;;;;5003674;28;20065;-76
2022/04/12 07:54:23;;;;;;;9.82;4.15;;;;;;;;;;4993659;28;20496;-77
2022/04/12 07:56:49;;;;;;;13.60;4.18;;;;;;;;;;5015377;28;20026;-76
2022/04/12 07:59:15;;;;;;;6.65;3.90;;;;;;;;;;4997628;28;20014;-76
2022/04/12 08:01:41;;;;;;;9.73;3.83;;;;;;;;;;4998761;28;20484;-76
2022/04/12 08:04:06;;;;;;;6.93;3.95;;;;;;;;;;4997518;28;20027;-76
2022/04/12 08:06:32;;;;;;;7.30;3.92;;;;;;;;;;5007781;28;20026;-77
2022/04/12 08:08:58;;;;;;;8.45;4.22;;;;;;;;;;4990190;28;20125;-76
2022/04/12 08:11:24;;;;;;;9.38;4.35;;;;;;;;;;5007444;28;20040;-77
2022/04/12 08:13:50;;;;;;;15.30;4.65;;;;;;;;;;4997664;28;20060;-77
2022/04/12 08:16:16;;;;;;;10.10;4.43;;;;;;;;;;5001034;28;20528;-77
2022/04/12 08:18:45;;;;;;;7.05;4.00;;;;;;;;;;4999364;28;20044;-76
2022/04/12 08:21:11;;;;;;;9.95;4.13;;;;;;;;;;5008000;28;20631;-76
2022/04/12 08:23:37;;;;;;;12.70;4.47;;;;;;;;;;5008043;28;20030;-76
2022/04/12 08:26:03;;;;;;;6.80;4.00;;;;;;;;;;5002661;28;20037;-76
2022/04/12 08:28:29;;;;;;;7.93;3.97;;;;;;;;;;5014381;28;20059;-76
2022/04/12 08:30:54;;;;;;;9.13;4.90;;;;;;;;;;5015291;28;20018;-77
2022/04/12 08:33:20;;;;;;;9.77;4.25;;;;;;;;;;5014788;28;20025;-76
2022/04/12 08:35:46;;;;;;;9.50;3.75;;;;;;;;;;5012678;28;20033;-76
2022/04/12 08:38:12;;;;;;;8.02;3.97;;;;;;;;;;4996135;28;20418;-76
2022/04/12 08:40:40;;;;;;;10.48;4.15;;;;;;;;;;5004923;28;20579;-77
2022/04/12 08:43:06;;;;;;;5.28;3.85;;;;;;;;;;5000132;28;20442;-76
2022/04/12 08:45:33;;;;;;;9.07;4.13;;;;;;;;;;4999011;28;20125;-76
2022/04/12 08:47:59;;;;;;;9.60;4.10;;;;;;;;;;5005073;28;20474;-76
2022/04/12 08:50:25;;;;;;;7.60;4.47;;;;;;;;;;5005542;28;20516;-76
2022/04/12 08:52:51;;;;;;;5.88;4.18;;;;;;;;;;5006121;28;20057;-76
2022/04/12 08:55:18;;;;;;;5.10;3.35;;;;;;;;;;4998924;28;20060;-76
2022/04/12 08:57:44;;;;;;;7.00;4.18;;;;;;;;;;5008256;28;20030;-76
2022/04/12 09:00:10;;;;;;;8.52;4.40;;;;;;;;;;4999578;28;20069;-77
2022/04/12 09:02:36;;;;;;;14.07;4.20;;;;;;;;;;5004210;28;20190;-76
2022/04/12 09:05:02;;;;;;;5.55;3.88;;;;;;;;;;5005458;28;20034;-77
2022/04/12 09:07:28;;;;;;;7.13;3.72;;;;;;;;;;5001991;28;20018;-76
2022/04/12 09:10:09;;;;;;;8.50;3.75;;;;;;;;;;5012807;28;20049;-76
2022/04/12 09:12:35;;;;;;;11.80;7.40;;;;;;;;;;5016986;28;20041;-77
2022/04/12 09:15:01;;;;;;;9.50;4.13;;;;;;;;;;4997253;28;20026;-76
2022/04/12 09:17:28;;;;;;;8.07;4.00;;;;;;;;;;5005342;28;20353;-77
2022/04/12 09:19:55;;;;;;;8.45;4.07;;;;;;;;;;5001378;28;20041;-76
2022/04/12 09:22:22;;;;;;;6.70;5.20;;;;;;;;;;5010907;28;20036;-77
2022/04/12 09:24:48;;;;;;;6.70;4.47;;;;;;;;;;5004094;28;20493;-77
2022/04/12 09:27:18;;;;;;;6.90;4.03;;;;;;;;;;5004489;28;20122;-76
2022/04/12 09:29:51;;;;;;;7.85;4.10;;;;;;;;;;4997026;28;20038;-77
2022/04/12 09:32:21;;;;;;;9.75;3.90;;;;;;;;;;5007881;28;20364;-77
2022/04/12 09:34:47;;;;;;;9.63;4.65;;;;;;;;;;4999315;28;20121;-77
2022/04/12 09:37:28;;;;;;;7.05;4.47;;;;;;;;;;4999105;28;20046;-77
2022/04/12 09:40:00;;;;;;;9.85;4.22;;;;;;;;;;4994949;28;20022;-77
2022/04/12 09:42:57;;;;;;;6.78;4.20;;;;;;;;;;5001197;28;20127;-76
2022/04/12 09:45:23;;;;;;;9.15;4.32;;;;;;;;;;4994732;28;20053;-77
2022/04/12 09:47:50;;;;;;;9.50;4.38;;;;;;;;;;5001046;28;20018;-76
2022/04/12 09:50:16;;;;;;;6.60;4.05;;;;;;;;;;5001747;28;20029;-77
2022/04/12 09:52:52;;;;;;;7.55;4.15;;;;;;;;;;5002209;28;20096;-77
2022/04/12 09:55:35;;;;;;;7.20;4.70;;;;;;;;;;4992644;28;20044;-77
2022/04/12 09:58:05;;;;;;;7.97;3.80;;;;;;;;;;5000051;28;20018;-77
2022/04/12 10:00:31;;;;;;;8.80;4.93;;;;;;;;;;5005661;28;20030;-77
2022/04/12 10:02:58;;;;;;;9.32;6.40;;;;;;;;;;4997793;28;20096;-76
2022/04/12 10:05:24;;;;;;;9.65;4.90;;;;;;;;;;4995919;28;20078;-76
2022/04/12 10:07:50;;;;;;;5.93;4.65;;;;;;;;;;5003204;28;20033;-77
2022/04/12 10:10:19;;;;;;;8.32;4.30;;;;;;;;;;5006024;28;20046;-77
2022/04/12 10:12:45;;;;;;;7.63;4.03;;;;;;;;;;4996062;28;20033;-76
2022/04/12 10:15:11;;;;;;;7.38;3.97;;;;;;;;;;5002036;28;20022;-77
2022/04/12 10:17:37;;;;;;;8.93;4.43;;;;;;;;;;5000794;28;20554;-76
2022/04/12 10:20:03;;;;;;;7.07;3.80;;;;;;;;;;4993136;28;20551;-76
2022/04/12 10:22:29;;;;;;;7.13;4.50;;;;;;;;;;4998232;28;20028;-76
2022/04/12 10:24:56;;;;;;;7.20;4.50;;;;;;;;;;5008180;28;20413;-77
2022/04/12 10:27:22;;;;;;;9.43;4.65;;;;;;;;;;5017237;28;20066;-77
2022/04/12 10:30:11;;;;;;;10.10;6.68;;;;;;;;;;5010765;28;20087;-76
2022/04/12 10:32:37;;;;;;;6.72;4.57;;;;;;;;;;5012511;28;20427;-76
2022/04/12 10:35:03;;;;;;;6.32;4.78;;;;;;;;;;5010369;28;20029;-77
2022/04/12 10:37:29;;;;;;;6.50;4.75;;;;;;;;;;5009283;28;20029;-77
2022/04/12 10:40:02;;;;;;;10.70;4.55;;;;;;;;;;5009009;28;20385;-77
2022/04/12 10:42:31;;;;;;;7.43;4.43;;;;;;;;;;5010021;28;20091;-76
2022/04/12 10:44:57;;;;;;;11.55;4.90;;;;;;;;;;5010130;28;20037;-76
2022/04/12 10:47:27;;;;;;;9.50;4.63;;;;;;;;;;5009899;28;20171;-77
2022/04/12 10:49:53;;;;;;;8.48;4.40;;;;;;;;;;5010473;28;20105;-77
2022/04/12 10:52:19;;;;;;;8.70;4.45;;;;;;;;;;5009565;28;20117;-76
2022/04/12 10:54:47;;;;;;;8.43;4.38;;;;;;;;;;5008559;28;20077;-77
2022/04/12 10:57:18;;;;;;;7.15;4.45;;;;;;;;;;5008952;28;20045;-76
2022/04/12 11:00:04;;;;;;;7.60;4.47;;;;;;;;;;5009248;28;20576;-77
2022/04/12 11:02:40;;;;;;;10.05;4.63;;;;;;;;;;5007989;28;20432;-77
2022/04/12 11:05:07;;;;;;;8.20;4.35;;;;;;;;;;5003914;28;20025;-77
2022/04/12 11:07:35;;;;;;;6.50;4.57;;;;;;;;;;5007939;28;20026;-77
2022/04/12 11:10:12;;;;;;;9.32;6.03;;;;;;;;;;5008955;28;20056;-76
2022/04/12 11:12:42;;;;;;;6.75;4.65;;;;;;;;;;5007440;28;20018;-76
2022/04/12 11:15:28;;;;;;;5.80;4.07;;;;;;;;;;5006716;28;20377;-77
2022/04/12 11:18:04;;;;;;;7.07;4.28;;;;;;;;;;5007853;28;20034;-77
2022/04/12 11:20:31;;;;;;;7.05;3.70;;;;;;;;;;5002813;28;20033;-76
2022/04/12 11:22:57;;;;;;;6.70;4.30;;;;;;;;;;5006322;28;20044;-77
2022/04/12 11:25:26;;;;;;;6.55;4.15;;;;;;;;;;5000909;28;20021;-77
2022/04/12 11:27:58;;;;;;;7.00;4.90;;;;;;;;;;5006080;28;20040;-76
2022/04/12 11:30:25;;;;;;;6.70;4.70;;;;;;;;;;4997683;28;20076;-77
2022/04/12 11:32:54;;;;;;;6.68;4.80;;;;;;;;;;4990257;28;20049;-77
2022/04/12 11:35:20;;;;;;;8.85;4.88;;;;;;;;;;4995471;28;20021;-76
2022/04/12 11:37:47;;;;;;;7.80;5.03;;;;;;;;;;4996753;28;20110;-77
2022/04/12 11:40:13;;;;;;;9.77;5.13;;;;;;;;;;4996672;28;20026;-76
2022/04/12 11:42:39;;;;;;;7.10;4.80;;;;;;;;;;4993412;28;20109;-77
2022/04/12 11:45:05;;;;;;;6.57;4.40;;;;;;;;;;5004008;28;20113;-77
2022/04/12 11:47:33;;;;;;;7.40;5.57;;;;;;;;;;4996895;28;20462;-77
2022/04/12 11:50:00;;;;;;;9.48;6.20;;;;;;;;;;5004131;28;20101;-77
2022/04/12 11:52:27;;;;;;;7.68;5.65;;;;;;;;;;5008045;28;20473;-77
2022/04/12 11:54:53;;;;;;;8.90;5.65;;;;;;;;;;5007875;28;20113;-77
2022/04/12 11:57:24;;;;;;;10.82;7.35;;;;;;;;;;4993066;28;20030;-77
2022/04/12 11:59:56;;;;;;;6.38;4.68;;;;;;;;;;5002210;28;20031;-77
2022/04/12 12:02:23;;;;;;;7.97;4.85;;;;;;;;;;4996754;28;20092;-77
2022/04/12 12:04:52;;;;;;;7.97;4.25;;;;;;;;;;4995999;28;20039;-77
2022/04/12 12:07:18;;;;;;;6.97;5.50;;;;;;;;;;5008229;28;20497;-77
2022/04/12 12:09:54;;;;;;;7.10;4.88;;;;;;;;;;5011499;28;20092;-78
2022/04/12 12:12:20;;;;;;;6.20;4.47;;;;;;;;;;5001827;28;20588;-77
2022/04/12 12:14:46;;;;;;;8.32;5.28;;;;;;;;;;4997230;28;20433;-77
2022/04/12 12:17:20;;;;;;;8.65;4.75;;;;;;;;;;5004334;28;20089;-77
2022/04/12 12:19:47;;;;;;;7.85;5.28;;;;;;;;;;4996462;28;20129;-77
2022/04/12 12:22:13;;;;;;;5.80;4.32;;;;;;;;;;4997535;28;20033;-76
2022/04/12 12:24:55;;;;;;;7.53;4.82;;;;;;;;;;4998930;28;20030;-76
2022/04/12 12:27:32;;;;;;;7.88;4.55;;;;;;;;;;5005459;28;20053;-78
2022/04/12 12:30:06;;;;;;;7.78;4.43;;;;;;;;;;4998109;28;20030;-77
2022/04/12 12:32:32;;;;;;;6.75;4.93;;;;;;;;;;5004128;28;20025;-77
2022/04/12 12:35:03;;;;;;;6.18;4.22;;;;;;;;;;5014147;28;20061;-76
2022/04/12 12:37:29;;;;;;;5.80;4.10;;;;;;;;;;5004924;28;20045;-76
2022/04/12 12:39:55;;;;;;;5.60;4.30;;;;;;;;;;5001000;28;20112;-77
2022/04/12 12:42:22;;;;;;;9.00;4.38;;;;;;;;;;5008812;28;20448;-76
2022/04/12 12:44:48;;;;;;;6.65;4.60;;;;;;;;;;5019896;28;20037;-77
2022/04/12 12:47:15;;;;;;;6.15;4.55;;;;;;;;;;5011741;28;20030;-76
2022/04/12 12:49:41;;;;;;;6.10;4.30;;;;;;;;;;5000595;28;20022;-75
2022/04/12 12:52:09;;;;;;;6.63;4.82;;;;;;;;;;5010023;28;20052;-76
2022/04/12 12:54:35;;;;;;;8.07;4.70;;;;;;;;;;5006641;28;20022;-78
2022/04/12 12:57:02;;;;;;;7.88;4.35;;;;;;;;;;5003120;28;20049;-79
2022/04/12 12:59:30;;;;;;;7.30;4.90;;;;;;;;;;5004575;28;20039;-78
2022/04/12 13:01:56;;;;;;;7.32;4.57;;;;;;;;;;5008689;28;20397;-79
2022/04/12 13:04:29;;;;;;;6.65;4.22;;;;;;;;;;4997007;28;20030;-79
2022/04/12 13:07:07;;;;;;;6.93;4.70;;;;;;;;;;5009618;28;20101;-78
2022/04/12 13:09:39;;;;;;;6.90;4.55;;;;;;;;;;5004178;28;20199;-77
2022/04/12 13:12:05;;;;;;;6.13;3.72;;;;;;;;;;5008770;28;20113;-78
2022/04/12 13:14:31;;;;;;;6.72;4.30;;;;;;;;;;5004611;28;20168;-78
2022/04/12 13:16:57;;;;;;;4.68;3.60;;;;;;;;;;5004954;28;20033;-78
2022/04/12 13:19:30;;;;;;;5.35;3.85;;;;;;;;;;5008394;28;20037;-78
2022/04/12 13:21:58;;;;;;;3.97;3.30;;;;;;;;;;5008561;28;20033;-79
2022/04/12 13:24:24;;;;;;;7.50;3.78;;;;;;;;;;5010971;28;20038;-78
2022/04/12 13:26:50;;;;;;;5.47;3.65;;;;;;;;;;5007770;28;20033;-78
2022/04/12 13:29:16;;;;;;;5.32;4.07;;;;;;;;;;5013294;28;20345;-79
2022/04/12 13:31:42;;;;;;;5.85;4.20;;;;;;;;;;5000107;28;20038;-78
2022/04/12 13:34:08;;;;;;;5.32;3.80;;;;;;;;;;5011096;28;20400;-77
2022/04/12 13:36:34;;;;;;;7.22;3.63;;;;;;;;;;4995573;28;20038;-78
2022/04/12 13:39:00;;;;;;;5.38;4.03;;;;;;;;;;5018058;28;20026;-78
2022/04/12 13:41:25;;;;;;;5.10;3.65;;;;;;;;;;5007733;28;20024;-78
2022/04/12 13:43:51;;;;;;;5.25;3.65;;;;;;;;;;5008676;28;20551;-77
2022/04/12 13:46:17;;;;;;;5.80;3.70;;;;;;;;;;5013880;28;20075;-78
2022/04/12 13:48:43;;;;;;;4.63;3.58;;;;;;;;;;5007058;28;20037;-78
2022/04/12 13:51:09;;;;;;;7.57;3.70;;;;;;;;;;5000807;28;20489;-78
2022/04/12 13:53:36;;;;;;;5.53;3.85;;;;;;;;;;5005927;28;20598;-78
2022/04/12 13:56:02;;;;;;;7.70;3.28;;;;;;;;;;5005766;28;20026;-78
2022/04/12 13:58:28;;;;;;;5.53;4.03;;;;;;;;;;5009136;28;20075;-77
2022/04/12 14:00:54;;;;;;;5.38;3.70;;;;;;;;;;4999940;28;20026;-78
2022/04/12 14:03:19;;;;;;;5.97;4.28;;;;;;;;;;5003829;28;20441;-78
2022/04/12 14:05:46;;;;;;;5.05;4.22;;;;;;;;;;5006583;28;20034;-78
2022/04/12 14:08:12;;;;;;;6.15;4.22;;;;;;;;;;5000771;28;20117;-78
2022/04/12 14:10:39;;;;;;;5.88;3.97;;;;;;;;;;5004532;28;20034;-78
2022/04/12 14:13:08;;;;;;;6.07;4.75;;;;;;;;;;5012555;28;20105;-78
2022/04/12 14:15:34;;;;;;;6.22;4.47;;;;;;;;;;5004614;28;20029;-78
2022/04/12 14:18:00;;;;;;;9.32;4.43;;;;;;;;;;5007322;28;20700;-79
2022/04/12 14:20:26;;;;;;;5.78;4.05;;;;;;;;;;5005818;28;20022;-79
2022/04/12 14:22:53;;;;;;;6.35;4.97;;;;;;;;;;5009485;28;20053;-78
2022/04/12 14:25:19;;;;;;;5.72;4.07;;;;;;;;;;4997237;28;20429;-78
2022/04/12 14:27:45;;;;;;;6.65;4.35;;;;;;;;;;5004201;28;20030;-79
2022/04/12 14:30:12;;;;;;;7.45;4.55;;;;;;;;;;4996214;28;20413;-78
2022/04/12 14:32:38;;;;;;;6.30;4.20;;;;;;;;;;5002291;28;20477;-78
2022/04/12 14:35:04;;;;;;;7.72;4.93;;;;;;;;;;4999167;28;20042;-78
2022/04/12 14:37:31;;;;;;;6.93;4.88;;;;;;;;;;4996904;28;20034;-78
2022/04/12 14:39:57;;;;;;;6.03;4.60;;;;;;;;;;4997566;28;20030;-78